createdAt,value
2022-10-11T00:01:27.985Z,12.68
2022-10-11T00:03:55.061Z,12.88
2022-10-11T00:06:21.841Z,11.25
2022-10-11T00:08:48.645Z,14.38
2022-10-11T00:11:15.757Z,13.35
2022-10-11T00:13:42.537Z,13.77
2022-10-11T00:16:10.580Z,16.90
2022-10-11T00:18:37.917Z,18.67
2022-10-11T00:21:06.689Z,16.73
2022-10-11T00:23:33.477Z,17.50
2022-10-11T00:26:01.481Z,20.40
2022-10-11T00:28:28.673Z,20.20
2022-10-11T00:30:55.481Z,23.75
2022-10-11T00:33:22.677Z,19.13
2022-10-11T00:35:49.461Z,19.38
2022-10-11T00:38:16.497Z,17.88
2022-10-11T00:40:43.861Z,19.65
2022-10-11T00:43:17.798Z,19.33
2022-10-11T00:45:57.124Z,16.92
2022-10-11T00:48:37.605Z,18.35
2022-10-11T00:51:07.267Z,18.52
2022-10-11T00:53:34.515Z,16.10
2022-10-11T00:56:05.186Z,15.27
2022-10-11T00:58:34.009Z,16.08
2022-10-11T01:01:00.958Z,14.50
2022-10-11T01:03:28.056Z,12.35
2022-10-11T01:05:57.804Z,13.48
2022-10-11T01:08:24.675Z,13.00
2022-10-11T01:10:51.934Z,11.10
2022-10-11T01:13:28.576Z,12.50
2022-10-11T01:16:14.315Z,15.27
2022-10-11T01:18:48.975Z,13.95
2022-10-11T01:21:43.760Z,14.45
2022-10-11T01:24:38.212Z,17.15
2022-10-11T01:27:26.627Z,19.42
2022-10-11T01:30:02.549Z,21.00
2022-10-11T01:32:34.815Z,19.80
2022-10-11T01:35:14.443Z,16.35
2022-10-11T01:37:43.959Z,18.67
2022-10-11T01:40:17.180Z,17.70
2022-10-11T01:42:44.207Z,19.08
2022-10-11T01:45:15.808Z,20.73
2022-10-11T01:47:42.678Z,20.55
2022-10-11T01:50:31.568Z,15.90
2022-10-11T01:52:58.403Z,22.40
2022-10-11T01:55:30.747Z,29.13
2022-10-11T01:58:03.687Z,40.78
2022-10-11T02:00:52.357Z,46.97
2022-10-11T02:03:41.025Z,55.35
2022-10-11T02:06:21.387Z,57.85
2022-10-11T02:08:51.212Z,56.47
2022-10-11T02:11:27.877Z,51.72
2022-10-11T02:13:57.823Z,51.88
2022-10-11T02:16:28.440Z,54.90
2022-10-11T02:18:55.184Z,50.85
2022-10-11T02:21:22.386Z,50.92
2022-10-11T02:23:59.596Z,45.28
2022-10-11T02:26:28.300Z,46.13
2022-10-11T02:28:56.753Z,42.90
2022-10-11T02:31:23.584Z,39.65
2022-10-11T02:34:07.563Z,42.78
2022-10-11T02:36:46.379Z,42.95
2022-10-11T02:39:17.962Z,37.65
2022-10-11T02:41:44.991Z,38.35
2022-10-11T02:44:21.491Z,40.22
2022-10-11T02:46:48.550Z,37.17
2022-10-11T02:49:15.308Z,36.40
2022-10-11T02:51:42.094Z,33.30
2022-10-11T02:54:09.116Z,36.58
2022-10-11T02:56:35.914Z,32.53
2022-10-11T02:59:02.710Z,35.47
2022-10-11T03:01:29.793Z,33.30
2022-10-11T03:03:56.662Z,34.17
2022-10-11T03:06:23.406Z,30.67
2022-10-11T03:08:50.423Z,28.13
2022-10-11T03:11:17.420Z,28.45
2022-10-11T03:13:44.182Z,30.35
2022-10-11T03:16:11.495Z,28.80
2022-10-11T03:18:38.361Z,29.45
2022-10-11T03:21:05.180Z,29.50
2022-10-11T03:23:32.210Z,29.98
2022-10-11T03:25:59.002Z,32.42
2022-10-11T03:28:25.890Z,30.27
2022-10-11T03:30:53.037Z,27.20
2022-10-11T03:33:19.822Z,26.00
2022-10-11T03:35:47.190Z,24.98
2022-10-11T03:38:15.436Z,22.85
2022-10-11T03:40:42.807Z,25.80
2022-10-11T03:43:10.090Z,26.33
2022-10-11T03:45:37.166Z,23.65
2022-10-11T03:48:04.234Z,22.83
2022-10-11T03:50:31.370Z,21.27
2022-10-11T03:52:58.373Z,23.40
2022-10-11T03:55:25.175Z,21.85
2022-10-11T03:57:51.969Z,19.98
2022-10-11T04:00:19.062Z,19.00
2022-10-11T04:02:45.826Z,21.35
2022-10-11T04:05:12.730Z,25.98
2022-10-11T04:07:40.225Z,18.23
2022-10-11T04:10:07.466Z,20.40
2022-10-11T04:12:34.301Z,20.73
2022-10-11T04:15:01.309Z,20.15
2022-10-11T04:17:28.149Z,19.90
2022-10-11T04:19:54.893Z,17.77
2022-10-11T04:22:21.882Z,22.05
2022-10-11T04:24:48.636Z,18.85
2022-10-11T04:27:15.413Z,14.90
2022-10-11T04:29:42.382Z,17.38
2022-10-11T04:32:09.117Z,18.40
2022-10-11T04:34:35.940Z,16.98
2022-10-11T04:37:02.965Z,14.32
2022-10-11T04:39:29.733Z,12.23
2022-10-11T04:41:56.533Z,14.20
2022-10-11T04:44:23.745Z,17.25
2022-10-11T04:46:50.550Z,11.80
2022-10-11T04:49:17.328Z,16.10
2022-10-11T04:51:44.336Z,11.25
2022-10-11T04:54:11.096Z,15.55
2022-10-11T04:56:37.889Z,13.77
2022-10-11T04:59:04.932Z,14.80
2022-10-11T05:01:31.702Z,14.13
2022-10-11T05:03:58.504Z,13.10
2022-10-11T05:06:25.604Z,13.20
2022-10-11T05:08:52.357Z,17.40
2022-10-11T05:11:19.272Z,16.23
2022-10-11T05:13:46.345Z,12.10
2022-10-11T05:16:13.744Z,18.27
2022-10-11T05:18:40.734Z,15.85
2022-10-11T05:21:09.069Z,17.77
2022-10-11T05:23:36.320Z,15.95
2022-10-11T05:26:03.680Z,15.02
2022-10-11T05:28:31.244Z,13.05
2022-10-11T05:30:58.202Z,13.73
2022-10-11T05:33:25.847Z,12.43
2022-10-11T05:35:53.016Z,13.50
2022-10-11T05:38:19.942Z,15.02
2022-10-11T05:40:46.687Z,13.15
2022-10-11T05:43:13.731Z,13.60
2022-10-11T05:45:41.454Z,11.85
2022-10-11T05:48:08.779Z,15.65
2022-10-11T05:50:36.229Z,13.30
2022-10-11T05:53:03.011Z,14.02
2022-10-11T05:55:29.819Z,13.73
2022-10-11T05:57:57.551Z,12.20
2022-10-11T06:00:24.464Z,14.88
2022-10-11T06:02:51.226Z,10.75
2022-10-11T06:05:18.255Z,9.55
2022-10-11T06:07:45.098Z,11.18
2022-10-11T06:10:12.030Z,11.10
2022-10-11T06:12:39.655Z,11.05
2022-10-11T06:15:07.487Z,12.02
2022-10-11T06:17:34.816Z,9.30
2022-10-11T06:20:01.868Z,14.18
2022-10-11T06:22:29.426Z,10.82
2022-10-11T06:24:56.274Z,13.40
2022-10-11T06:27:23.290Z,13.40
2022-10-11T06:29:50.038Z,14.57
2022-10-11T06:32:17.109Z,13.98
2022-10-11T06:34:43.882Z,11.98
2022-10-11T06:37:10.630Z,12.50
2022-10-11T06:39:37.773Z,12.40
2022-10-11T06:42:04.569Z,11.32
2022-10-11T06:44:31.365Z,10.85
2022-10-11T06:46:58.413Z,11.25
2022-10-11T06:49:25.250Z,10.60
2022-10-11T06:51:52.257Z,9.85
2022-10-11T06:54:19.698Z,10.00
2022-10-11T06:56:46.506Z,12.93
2022-10-11T06:59:13.563Z,12.25
2022-10-11T07:01:41.986Z,10.45
2022-10-11T07:04:08.945Z,11.20
2022-10-11T07:06:39.722Z,12.35
2022-10-11T07:09:07.226Z,9.43
2022-10-11T07:11:34.437Z,11.50
2022-10-11T07:14:04.292Z,12.93
2022-10-11T07:16:31.334Z,9.90
2022-10-11T07:19:00.740Z,10.63
2022-10-11T07:21:28.436Z,11.32
2022-10-11T07:23:55.484Z,9.27
2022-10-11T07:26:22.284Z,11.23
2022-10-11T07:28:49.089Z,17.17
2022-10-11T07:31:21.022Z,12.90
2022-10-11T07:33:47.864Z,10.98
2022-10-11T07:36:14.660Z,9.30
2022-10-11T07:38:42.436Z,9.38
2022-10-11T07:41:09.392Z,10.02
2022-10-11T07:43:36.717Z,10.07
2022-10-11T07:46:04.881Z,10.38
2022-10-11T07:48:32.508Z,9.80
2022-10-11T07:51:19.320Z,10.85
2022-10-11T07:53:51.012Z,10.35
2022-10-11T07:56:25.992Z,10.23
2022-10-11T07:58:58.131Z,10.52
2022-10-11T08:01:25.872Z,8.18
2022-10-11T08:03:52.783Z,9.23
2022-10-11T08:06:21.423Z,8.85
2022-10-11T08:08:48.968Z,9.35
2022-10-11T08:11:25.879Z,8.30
2022-10-11T08:13:53.071Z,8.07
2022-10-11T08:24:45.780Z,7.27
2022-10-11T08:27:12.597Z,7.93
2022-10-11T08:29:39.612Z,7.68
2022-10-11T08:32:06.439Z,7.65
2022-10-11T08:34:33.291Z,8.13
2022-10-11T08:37:00.323Z,9.05
2022-10-11T08:39:27.120Z,8.27
2022-10-11T08:42:09.130Z,8.18
2022-10-11T08:45:08.921Z,9.35
2022-10-11T08:47:43.186Z,8.57
2022-10-11T08:50:21.303Z,12.77
2022-10-11T08:52:53.379Z,8.85
2022-10-11T08:55:30.087Z,10.75
2022-10-11T08:57:57.384Z,7.10
2022-10-11T09:00:24.670Z,7.97
2022-10-11T09:03:36.970Z,7.40
2022-10-11T09:06:35.978Z,10.45
2022-10-11T09:09:40.360Z,11.32
2022-10-11T09:12:11.038Z,7.75
2022-10-11T09:14:45.991Z,9.35
2022-10-11T09:17:34.864Z,8.95
2022-10-11T09:20:23.382Z,5.97
2022-10-11T09:23:27.425Z,7.53
2022-10-11T09:26:03.780Z,9.18
2022-10-11T09:28:34.012Z,7.53
2022-10-11T09:31:00.810Z,8.23
2022-10-11T09:33:54.789Z,10.32
2022-10-11T09:36:49.633Z,8.27
2022-10-11T09:39:33.260Z,6.88
2022-10-11T09:42:05.512Z,8.50
2022-10-11T09:44:37.450Z,7.63
2022-10-11T09:47:04.816Z,7.57
2022-10-11T09:49:43.189Z,9.40
2022-10-11T09:52:18.857Z,8.52
2022-10-11T09:54:47.711Z,6.60
2022-10-11T09:57:27.454Z,6.80
2022-10-11T10:00:00.258Z,6.07
2022-10-11T10:02:29.159Z,6.47
2022-10-11T10:05:00.786Z,7.32
2022-10-11T10:07:28.603Z,5.88
2022-10-11T10:09:55.768Z,5.03
2022-10-11T10:12:24.497Z,13.40
2022-10-11T10:15:08.623Z,8.02
2022-10-11T10:17:35.872Z,6.32
2022-10-11T10:20:05.615Z,7.43
2022-10-11T10:22:34.428Z,7.97
2022-10-11T10:25:07.900Z,6.57
2022-10-11T10:27:34.719Z,5.78
2022-10-11T10:30:07.680Z,5.43
2022-10-11T10:32:36.376Z,6.55
2022-10-11T10:35:07.462Z,4.53
2022-10-11T10:37:46.080Z,6.75
2022-10-11T10:40:25.587Z,6.45
2022-10-11T10:42:52.403Z,6.68
2022-10-11T10:45:21.782Z,4.10
2022-10-11T10:48:24.727Z,6.35
2022-10-11T10:51:01.327Z,5.50
2022-10-11T10:54:25.023Z,6.10
2022-10-11T10:57:03.103Z,3.88
2022-10-11T10:59:30.427Z,7.20
2022-10-11T11:02:15.989Z,4.60
2022-10-11T11:05:01.717Z,4.28
2022-10-11T11:07:37.871Z,8.73
2022-10-11T11:10:07.319Z,7.32
2022-10-11T11:13:00.987Z,8.10
2022-10-11T11:15:35.541Z,5.97
2022-10-11T11:18:04.647Z,4.30
2022-10-11T11:20:37.435Z,5.40
2022-10-11T11:23:31.655Z,4.15
2022-10-11T11:26:13.020Z,5.28
2022-10-11T11:29:17.614Z,6.50
2022-10-11T11:32:03.156Z,4.43
2022-10-11T11:34:34.407Z,4.47
2022-10-11T11:37:06.895Z,3.75
2022-10-11T11:39:48.469Z,3.58
2022-10-11T11:42:22.911Z,6.38
2022-10-11T11:44:50.963Z,4.65
2022-10-11T11:47:29.307Z,3.05
2022-10-11T11:50:02.133Z,5.18
2022-10-11T11:52:36.404Z,4.30
2022-10-11T11:55:23.080Z,2.75
2022-10-11T11:57:56.241Z,5.75
2022-10-11T12:00:28.013Z,5.07
2022-10-11T12:03:06.278Z,5.20
2022-10-11T12:05:34.419Z,3.20
2022-10-11T12:08:06.771Z,3.75
2022-10-11T12:10:48.847Z,2.78
2022-10-11T12:13:48.690Z,3.60
2022-10-11T12:16:16.579Z,3.78
2022-10-11T12:18:59.032Z,6.13
2022-10-11T12:21:27.647Z,1.98
2022-10-11T12:23:56.039Z,2.25
2022-10-11T12:26:28.903Z,4.15
2022-10-11T12:29:02.344Z,2.70
2022-10-11T12:31:35.923Z,3.38
2022-10-11T12:34:09.139Z,4.75
2022-10-11T12:36:46.718Z,2.15
2022-10-11T12:39:19.810Z,3.15
2022-10-11T12:41:47.314Z,4.03
2022-10-11T12:44:23.095Z,4.22
2022-10-11T12:46:57.574Z,4.97
2022-10-11T12:49:33.408Z,4.75
2022-10-11T12:52:03.823Z,2.13
2022-10-11T12:54:49.395Z,2.50
2022-10-11T12:57:39.682Z,2.53
2022-10-11T13:00:12.561Z,3.90
2022-10-11T13:02:40.403Z,3.58
2022-10-11T13:05:29.957Z,3.22
2022-10-11T13:07:58.702Z,3.85
2022-10-11T13:10:31.071Z,3.20
2022-10-11T13:12:59.718Z,4.63
2022-10-11T13:15:26.645Z,4.93
2022-10-11T13:17:58.832Z,3.53
2022-10-11T13:20:26.930Z,1.95
2022-10-11T13:22:54.897Z,2.22
2022-10-11T13:25:29.662Z,3.28
2022-10-11T13:27:57.993Z,4.20
2022-10-11T13:30:30.021Z,2.58
2022-10-11T13:32:57.742Z,2.90
2022-10-11T13:35:37.585Z,4.03
2022-10-11T13:38:08.264Z,2.95
2022-10-11T13:40:35.043Z,3.40
2022-10-11T13:43:02.147Z,4.55
2022-10-11T13:45:30.738Z,2.70
2022-10-11T13:47:57.641Z,5.25
2022-10-11T13:50:31.781Z,5.07
2022-10-11T13:53:03.716Z,3.55
2022-10-11T13:55:34.499Z,4.55
2022-10-11T13:58:03.260Z,3.03
2022-10-11T14:00:34.898Z,3.53
2022-10-11T14:03:15.656Z,2.78
2022-10-11T14:05:51.605Z,3.58
2022-10-11T14:08:31.012Z,4.68
2022-10-11T14:11:01.279Z,4.30
2022-10-11T14:13:58.752Z,2.85
2022-10-11T14:16:25.533Z,2.45
2022-10-11T14:19:12.852Z,2.95
2022-10-11T14:21:45.864Z,3.38
2022-10-11T14:24:13.361Z,3.17
2022-10-11T14:26:41.763Z,3.13
2022-10-11T14:29:27.869Z,2.67
2022-10-11T14:32:14.544Z,2.38
2022-10-11T14:34:41.669Z,2.97
2022-10-11T14:37:09.772Z,1.40
2022-10-11T14:39:36.932Z,3.50
2022-10-11T14:42:04.791Z,3.03
2022-10-11T14:44:31.900Z,2.97
2022-10-11T14:46:59.136Z,2.90
2022-10-11T14:49:28.024Z,2.15
2022-10-11T14:51:55.935Z,2.90
2022-10-11T14:54:23.792Z,1.95
2022-10-11T14:56:55.288Z,5.07
2022-10-11T14:59:23.852Z,3.38
2022-10-11T15:01:52.009Z,5.10
2022-10-11T15:04:22.850Z,4.80
2022-10-11T15:06:50.121Z,2.63
2022-10-11T15:09:17.391Z,2.35
2022-10-11T15:11:44.585Z,3.65
2022-10-11T15:14:11.392Z,4.05
2022-10-11T15:16:40.008Z,4.55
2022-10-11T15:19:09.844Z,4.03
2022-10-11T15:21:36.601Z,2.60
2022-10-11T15:24:03.533Z,4.10
2022-10-11T15:26:30.613Z,3.67
2022-10-11T15:28:57.574Z,3.35
2022-10-11T15:31:24.433Z,2.35
2022-10-11T15:33:51.794Z,2.22
2022-10-11T15:36:21.174Z,3.42
2022-10-11T15:38:48.329Z,3.08
2022-10-11T15:41:16.587Z,3.35
2022-10-11T15:43:43.793Z,3.35
2022-10-11T15:46:17.472Z,4.82
2022-10-11T15:48:44.699Z,3.67
2022-10-11T15:51:11.705Z,3.42
2022-10-11T15:53:38.516Z,4.22
2022-10-11T15:56:07.369Z,4.65
2022-10-11T15:58:36.649Z,2.90
2022-10-11T16:01:08.846Z,3.80
2022-10-11T16:03:36.407Z,3.35
2022-10-11T16:06:05.589Z,3.35
2022-10-11T16:08:33.592Z,3.17
2022-10-11T16:11:00.826Z,2.58
2022-10-11T16:13:27.639Z,4.38
2022-10-11T16:15:54.821Z,3.08
2022-10-11T16:18:22.253Z,3.22
2022-10-11T16:20:51.949Z,2.15
2022-10-11T16:23:20.062Z,2.88
2022-10-11T16:25:48.143Z,2.55
2022-10-11T16:28:15.125Z,3.25
2022-10-11T16:30:45.253Z,4.28
2022-10-11T16:33:12.299Z,2.13
2022-10-11T16:35:42.512Z,2.00
2022-10-11T16:38:09.694Z,2.05
2022-10-11T16:40:40.403Z,2.05
2022-10-11T16:43:08.054Z,1.67
2022-10-11T16:45:35.496Z,2.50
2022-10-11T16:48:02.552Z,3.00
2022-10-11T16:50:29.358Z,2.47
2022-10-11T16:52:56.421Z,2.88
2022-10-11T16:55:23.393Z,2.80
2022-10-11T16:57:50.379Z,2.63
2022-10-11T17:00:17.177Z,2.90
2022-10-11T17:02:44.273Z,4.20
2022-10-11T17:05:11.013Z,5.07
2022-10-11T17:07:38.045Z,4.95
2022-10-11T17:10:05.431Z,3.63
2022-10-11T17:12:35.397Z,3.92
2022-10-11T17:15:02.188Z,5.00
2022-10-11T17:17:29.686Z,4.88
2022-10-11T17:19:56.591Z,5.85
2022-10-11T17:22:24.124Z,6.25
2022-10-11T17:24:51.178Z,5.85
2022-10-11T17:27:18.217Z,5.28
2022-10-11T17:29:45.011Z,6.68
2022-10-11T17:32:11.835Z,8.10
2022-10-11T17:34:38.811Z,8.82
2022-10-11T17:37:06.162Z,8.05
2022-10-11T17:39:34.113Z,6.72
2022-10-11T17:42:05.046Z,8.90
2022-10-11T17:44:31.850Z,15.48
2022-10-11T17:46:59.462Z,10.70
2022-10-11T17:49:26.336Z,8.20
2022-10-11T17:51:53.317Z,14.38
2022-10-11T17:54:20.138Z,11.20
2022-10-11T17:56:46.966Z,11.80
2022-10-11T17:59:18.367Z,16.33
2022-10-11T18:01:45.273Z,16.70
2022-10-11T18:04:16.602Z,16.52
2022-10-11T18:06:45.114Z,20.90
2022-10-11T18:09:12.734Z,22.67
2022-10-11T18:11:39.770Z,22.48
2022-10-11T18:14:06.593Z,22.52
2022-10-11T18:16:33.826Z,19.30
2022-10-11T18:19:01.697Z,23.00
2022-10-11T18:21:33.943Z,23.00
2022-10-11T18:24:02.745Z,25.77
2022-10-11T18:26:30.939Z,23.63
2022-10-11T18:28:58.057Z,25.17
2022-10-11T18:31:26.606Z,29.05
2022-10-11T18:33:53.462Z,24.17
2022-10-11T18:36:22.045Z,29.67
2022-10-11T18:38:50.774Z,28.08
2022-10-11T18:41:20.093Z,27.85
2022-10-11T18:43:50.814Z,29.08
2022-10-11T18:46:18.004Z,29.08
2022-10-11T18:48:45.672Z,35.15
2022-10-11T18:51:25.732Z,32.42
2022-10-11T18:53:53.520Z,35.70
2022-10-11T18:56:21.765Z,34.13
2022-10-11T18:58:49.628Z,33.72
2022-10-11T19:01:20.306Z,31.23
2022-10-11T19:03:48.379Z,39.85
2022-10-11T19:06:17.711Z,33.72
2022-10-11T19:08:52.472Z,36.55
2022-10-11T19:11:22.751Z,39.15
2022-10-11T19:14:01.286Z,39.28
2022-10-11T19:16:29.755Z,37.53
2022-10-11T19:18:57.051Z,41.08
2022-10-11T19:21:23.795Z,39.67
2022-10-11T19:23:50.955Z,45.78
2022-10-11T19:26:27.084Z,43.67
2022-10-11T19:29:00.679Z,41.00
2022-10-11T19:31:28.156Z,42.03
2022-10-11T19:33:56.656Z,43.58
2022-10-11T19:36:23.844Z,41.80
2022-10-11T19:38:51.050Z,46.72
2022-10-11T19:41:19.188Z,47.20
2022-10-11T19:43:46.496Z,48.80
2022-10-11T19:46:37.870Z,46.47
2022-10-11T19:49:05.450Z,47.22
2022-10-11T19:51:34.861Z,44.05
2022-10-11T19:54:03.386Z,44.67
2022-10-11T19:56:31.458Z,47.63
2022-10-11T19:58:58.565Z,49.70
2022-10-11T20:01:27.202Z,50.45
2022-10-11T20:03:56.593Z,52.50
2022-10-11T20:06:23.743Z,50.63
2022-10-11T20:09:10.344Z,56.45
2022-10-11T20:11:37.692Z,55.22
2022-10-11T20:14:04.671Z,56.85
2022-10-11T20:16:31.483Z,61.40
2022-10-11T20:18:59.269Z,57.40
2022-10-11T20:21:27.481Z,60.17
2022-10-11T20:23:57.376Z,59.83
2022-10-11T20:26:24.647Z,59.33
2022-10-11T20:28:55.919Z,58.35
2022-10-11T20:31:28.030Z,62.17
2022-10-11T20:33:56.540Z,56.20
2022-10-11T20:36:23.807Z,59.60
2022-10-11T20:38:51.270Z,55.85
2022-10-11T20:41:19.980Z,58.35
2022-10-11T20:43:51.468Z,62.67
2022-10-11T20:46:19.850Z,57.85
2022-10-11T20:48:58.864Z,62.40
2022-10-11T20:51:28.936Z,58.80
2022-10-11T20:53:56.511Z,55.65
2022-10-11T20:56:23.331Z,65.07
2022-10-11T20:58:52.264Z,59.38
2022-10-11T21:01:20.721Z,58.13
2022-10-11T21:03:47.526Z,61.75
2022-10-11T21:06:14.590Z,63.72
2022-10-11T21:08:41.369Z,64.10
2022-10-11T21:11:08.827Z,58.80
2022-10-11T21:13:35.721Z,61.88
2022-10-11T21:16:04.427Z,64.30
2022-10-11T21:18:31.230Z,63.60
2022-10-11T21:20:57.990Z,65.63
2022-10-11T21:23:24.974Z,66.30
2022-10-11T21:25:51.770Z,63.72
2022-10-11T21:28:18.569Z,65.90
2022-10-11T21:30:45.623Z,65.45
2022-10-11T21:33:12.379Z,60.45
2022-10-11T21:35:40.180Z,62.13
2022-10-11T21:38:07.183Z,69.00
2022-10-11T21:40:37.863Z,61.75
2022-10-11T21:43:04.639Z,64.38
2022-10-11T21:45:31.642Z,64.88
2022-10-11T21:47:58.566Z,65.25
2022-10-11T21:50:25.574Z,70.65
2022-10-11T21:52:52.350Z,63.55
2022-10-11T21:55:19.369Z,66.22
2022-10-11T21:57:46.110Z,67.70
2022-10-11T22:00:13.486Z,68.13
2022-10-11T22:02:40.626Z,69.50
2022-10-11T22:05:07.680Z,68.60
2022-10-11T22:07:34.462Z,70.57
2022-10-11T22:10:01.602Z,69.45
2022-10-11T22:12:28.587Z,67.13
2022-10-11T22:14:55.438Z,68.10
2022-10-11T22:17:22.506Z,68.88
2022-10-11T22:19:49.282Z,67.57
2022-10-11T22:22:16.114Z,73.25
2022-10-11T22:24:43.130Z,66.07
2022-10-11T22:27:09.936Z,69.47
2022-10-11T22:29:36.761Z,73.40
2022-10-11T22:32:04.526Z,71.38
2022-10-11T22:34:32.485Z,74.45
2022-10-11T22:36:59.245Z,68.65
2022-10-11T22:39:26.294Z,76.47
2022-10-11T22:41:53.905Z,72.88
2022-10-11T22:44:20.829Z,72.95
2022-10-11T22:46:47.853Z,75.18
2022-10-11T22:49:14.649Z,76.00
2022-10-11T22:51:41.445Z,71.80
2022-10-11T22:54:08.493Z,67.20
2022-10-11T22:56:35.366Z,71.85
2022-10-11T22:59:02.143Z,76.82
2022-10-11T23:01:29.153Z,77.03
2022-10-11T23:03:56.669Z,70.75
2022-10-11T23:06:23.525Z,73.25
2022-10-11T23:08:50.537Z,78.57
2022-10-11T23:11:17.372Z,73.50
2022-10-11T23:13:44.133Z,77.25
2022-10-11T23:16:12.012Z,75.82
2022-10-11T23:18:38.903Z,75.90
2022-10-11T23:21:05.876Z,73.68
2022-10-11T23:23:33.001Z,78.60
2022-10-11T23:26:11.434Z,79.18
2022-10-11T23:28:38.546Z,75.85
2022-10-11T23:31:09.283Z,78.78
2022-10-11T23:33:36.515Z,80.07
2022-10-11T23:36:04.068Z,82.32
2022-10-11T23:38:31.033Z,82.50
2022-10-11T23:40:57.856Z,76.93
2022-10-11T23:43:24.835Z,80.55
2022-10-11T23:45:51.600Z,76.07
2022-10-11T23:48:18.368Z,82.70
2022-10-11T23:50:45.608Z,80.95
2022-10-11T23:53:13.735Z,83.80
2022-10-11T23:55:40.691Z,79.90
2022-10-11T23:58:08.187Z,78.68
